createdAt,value
2023-03-11T00:00:24.250Z,93461.63
2023-03-11T00:02:53.188Z,93465.00
2023-03-11T00:05:25.571Z,93451.75
2023-03-11T00:07:52.602Z,93464.09
2023-03-11T00:10:25.546Z,93460.91
2023-03-11T00:12:52.197Z,93467.50
2023-03-11T00:15:18.970Z,93469.53
2023-03-11T00:17:47.232Z,93477.97
2023-03-11T00:20:20.086Z,93468.19
2023-03-11T00:22:47.463Z,93474.41
2023-03-11T00:25:14.951Z,93477.41
2023-03-11T00:27:41.603Z,93471.22
2023-03-11T00:30:09.083Z,93475.63
2023-03-11T00:32:35.737Z,93461.84
2023-03-11T00:35:02.790Z,93467.91
2023-03-11T00:37:29.357Z,93477.88
2023-03-11T00:39:56.069Z,93473.94
2023-03-11T00:42:22.701Z,93479.78
2023-03-11T00:44:49.284Z,93469.41
2023-03-11T00:47:15.930Z,93473.81
2023-03-11T00:49:43.076Z,93463.41
2023-03-11T00:52:09.906Z,93457.94
2023-03-11T00:54:36.504Z,93468.66
2023-03-11T00:57:03.248Z,93488.34
2023-03-11T00:59:29.835Z,93487.97
2023-03-11T01:01:56.401Z,93479.44
2023-03-11T01:04:23.004Z,93481.69
2023-03-11T01:06:49.637Z,93485.47
2023-03-11T01:09:16.230Z,93486.50
2023-03-11T01:11:42.784Z,93497.53
2023-03-11T01:14:09.720Z,93490.13
2023-03-11T01:16:36.339Z,93502.06
2023-03-11T01:19:03.214Z,93493.38
2023-03-11T01:21:29.851Z,93485.88
2023-03-11T01:23:56.498Z,93488.53
2023-03-11T01:26:23.081Z,93484.91
2023-03-11T01:28:49.706Z,93471.13
2023-03-11T01:31:16.525Z,93475.69
2023-03-11T01:33:43.121Z,93478.63
2023-03-11T01:36:09.870Z,93487.84
2023-03-11T01:38:36.549Z,93478.88
2023-03-11T01:41:03.861Z,93485.41
2023-03-11T01:43:45.977Z,93485.97
2023-03-11T01:47:08.129Z,93474.97
2023-03-11T01:49:34.783Z,93479.06
2023-03-11T01:52:07.627Z,93482.75
2023-03-11T01:54:38.201Z,93488.19
2023-03-11T01:57:12.384Z,93489.56
2023-03-11T01:59:44.852Z,93485.34
2023-03-11T02:02:32.564Z,93481.97
2023-03-11T02:05:01.419Z,93491.06
2023-03-11T02:07:28.783Z,93492.47
2023-03-11T02:09:55.350Z,93487.63
2023-03-11T02:12:22.242Z,93498.09
2023-03-11T02:14:51.775Z,93491.78
2023-03-11T02:17:18.462Z,93502.34
2023-03-11T02:20:06.209Z,93503.22
2023-03-11T02:22:33.694Z,93504.72
2023-03-11T02:25:07.360Z,93506.03
2023-03-11T02:27:38.684Z,93522.22
2023-03-11T02:30:06.316Z,93527.63
2023-03-11T02:32:33.501Z,93536.25
2023-03-11T02:35:00.225Z,93544.03
2023-03-11T02:37:26.801Z,93528.97
2023-03-11T02:40:22.522Z,93524.22
2023-03-11T02:42:51.883Z,93525.38
2023-03-11T02:45:21.948Z,93532.81
2023-03-11T02:47:49.546Z,93533.84
2023-03-11T02:50:18.416Z,93541.88
2023-03-11T02:52:45.620Z,93520.78
2023-03-11T02:55:12.238Z,93533.50
2023-03-11T02:57:39.042Z,93529.53
2023-03-11T03:00:15.050Z,93538.75
2023-03-11T03:02:43.243Z,93541.63
2023-03-11T03:05:11.524Z,93543.28
2023-03-11T03:07:38.586Z,93554.28
2023-03-11T03:10:06.450Z,93554.03
2023-03-11T03:12:32.998Z,93552.22
2023-03-11T03:14:59.588Z,93536.16
2023-03-11T03:17:26.262Z,93554.88
2023-03-11T03:19:53.068Z,93554.09
2023-03-11T03:22:19.684Z,93562.75
2023-03-11T03:24:46.356Z,93560.38
2023-03-11T03:27:12.951Z,93565.81
2023-03-11T03:29:39.519Z,93571.34
2023-03-11T03:32:06.655Z,93569.84
2023-03-11T03:34:33.441Z,93581.06
2023-03-11T03:36:59.985Z,93561.88
2023-03-11T03:39:30.768Z,93568.19
2023-03-11T03:41:57.406Z,93562.16
2023-03-11T03:44:24.036Z,93560.25
2023-03-11T03:46:50.694Z,93560.44
2023-03-11T03:49:17.253Z,93574.25
2023-03-11T03:51:43.866Z,93575.59
2023-03-11T03:54:10.485Z,93567.50
2023-03-11T03:56:37.178Z,93570.44
2023-03-11T03:59:03.956Z,93561.34
2023-03-11T04:01:30.519Z,93566.63
2023-03-11T04:03:57.136Z,93561.13
2023-03-11T04:06:25.978Z,93557.84
2023-03-11T04:08:53.741Z,93553.94
2023-03-11T04:11:21.358Z,93554.31
2023-03-11T04:13:48.429Z,93556.53
2023-03-11T04:16:18.763Z,93571.47
2023-03-11T04:18:45.591Z,93568.78
2023-03-11T04:21:12.378Z,93579.66
2023-03-11T04:23:38.990Z,93589.69
2023-03-11T04:26:06.082Z,93589.63
2023-03-11T04:28:32.710Z,93580.66
2023-03-11T04:30:59.370Z,93581.94
2023-03-11T04:33:26.016Z,93571.50
2023-03-11T04:35:52.635Z,93575.25
2023-03-11T04:38:19.297Z,93584.41
2023-03-11T04:40:45.841Z,93578.44
2023-03-11T04:43:12.481Z,93579.28
2023-03-11T04:45:40.174Z,93578.69
2023-03-11T04:48:07.120Z,93585.09
2023-03-11T04:50:34.020Z,93583.63
2023-03-11T04:53:00.578Z,93589.28
2023-03-11T04:55:27.170Z,93582.66
2023-03-11T04:57:53.949Z,93580.47
2023-03-11T05:00:24.764Z,93588.34
2023-03-11T05:02:51.571Z,93598.00
2023-03-11T05:05:21.951Z,93596.81
2023-03-11T05:07:50.373Z,93590.44
2023-03-11T05:10:22.561Z,93587.59
2023-03-11T05:12:50.172Z,93591.47
2023-03-11T05:15:17.014Z,93598.22
2023-03-11T05:17:43.905Z,93597.81
2023-03-11T05:20:11.451Z,93601.03
2023-03-11T05:22:38.412Z,93607.34
2023-03-11T05:25:05.961Z,93609.88
2023-03-11T05:27:32.921Z,93608.97
2023-03-11T05:29:59.536Z,93614.72
2023-03-11T05:32:26.309Z,93617.91
2023-03-11T05:34:52.964Z,93615.13
2023-03-11T05:37:20.059Z,93612.66
2023-03-11T05:39:46.736Z,93619.88
2023-03-11T05:42:13.390Z,93614.41
2023-03-11T05:44:41.452Z,93623.59
2023-03-11T05:47:08.056Z,93619.16
2023-03-11T05:49:34.764Z,93612.75
2023-03-11T05:52:01.460Z,93612.88
2023-03-11T05:54:27.990Z,93611.63
2023-03-11T05:56:55.966Z,93619.88
2023-03-11T05:59:23.335Z,93620.84
2023-03-11T06:01:49.973Z,93614.22
2023-03-11T06:04:16.711Z,93623.72
2023-03-11T06:06:43.373Z,93628.16
2023-03-11T06:09:14.224Z,93627.59
2023-03-11T06:11:41.287Z,93631.41
2023-03-11T06:14:10.952Z,93632.22
2023-03-11T06:16:37.629Z,93638.88
2023-03-11T06:19:04.276Z,93637.84
2023-03-11T06:21:31.310Z,93636.72
2023-03-11T06:23:57.879Z,93648.56
2023-03-11T06:26:24.869Z,93653.22
2023-03-11T06:28:52.480Z,93657.56
2023-03-11T06:31:27.413Z,93663.56
2023-03-11T06:33:56.105Z,93650.78
2023-03-11T06:36:23.430Z,93653.44
2023-03-11T06:38:52.943Z,93644.28
2023-03-11T06:41:19.590Z,93651.66
2023-03-11T06:43:46.255Z,93663.84
2023-03-11T06:46:21.223Z,93667.31
2023-03-11T06:48:48.029Z,93670.19
2023-03-11T06:51:14.742Z,93686.09
2023-03-11T06:53:41.425Z,93683.81
2023-03-11T06:56:13.254Z,93689.09
2023-03-11T06:58:42.723Z,93693.69
2023-03-11T07:01:15.178Z,93700.56
2023-03-11T07:03:42.502Z,93708.47
2023-03-11T07:06:19.271Z,93713.16
2023-03-11T07:08:50.812Z,93718.59
2023-03-11T07:11:19.186Z,93734.84
2023-03-11T07:13:46.129Z,93735.22
2023-03-11T07:16:15.980Z,93726.91
2023-03-11T07:18:43.783Z,93732.50
2023-03-11T07:21:14.161Z,93732.91
2023-03-11T07:23:41.425Z,93737.81
2023-03-11T07:26:15.945Z,93738.03
2023-03-11T07:28:42.625Z,93751.38
2023-03-11T07:31:10.731Z,93746.72
2023-03-11T07:33:38.450Z,93755.28
2023-03-11T07:36:07.259Z,93761.69
2023-03-11T07:38:33.952Z,93760.72
2023-03-11T07:41:00.624Z,93770.44
2023-03-11T07:43:27.409Z,93765.41
2023-03-11T07:46:04.790Z,93777.53
2023-03-11T07:48:31.728Z,93779.16
2023-03-11T07:51:06.972Z,93776.94
2023-03-11T07:53:34.464Z,93775.38
2023-03-11T07:56:01.981Z,93774.34
2023-03-11T07:58:28.737Z,93783.78
2023-03-11T08:00:56.986Z,93779.91
2023-03-11T08:03:25.036Z,93780.09
2023-03-11T08:05:52.268Z,93779.53
2023-03-11T08:08:19.037Z,93774.66
2023-03-11T08:10:45.586Z,93780.41
2023-03-11T08:13:12.139Z,93774.25
2023-03-11T08:15:38.831Z,93787.00
2023-03-11T08:18:05.673Z,93776.75
2023-03-11T08:20:32.445Z,93786.84
2023-03-11T08:23:00.894Z,93796.06
2023-03-11T08:25:27.624Z,93791.97
2023-03-11T08:27:54.234Z,93780.25
2023-03-11T08:30:21.343Z,93790.19
2023-03-11T08:32:49.316Z,93790.09
2023-03-11T08:35:16.801Z,93807.13
2023-03-11T08:37:43.647Z,93807.34
2023-03-11T08:40:11.233Z,93815.81
2023-03-11T08:42:37.830Z,93814.28
2023-03-11T08:45:04.942Z,93823.81
2023-03-11T08:47:35.778Z,93809.53
2023-03-11T08:50:04.839Z,93808.06
2023-03-11T08:52:31.402Z,93809.66
2023-03-11T08:54:57.988Z,93815.59
2023-03-11T08:57:24.693Z,93816.66
2023-03-11T08:59:51.273Z,93817.34
2023-03-11T09:02:17.897Z,93822.63
2023-03-11T09:04:47.361Z,93814.88
2023-03-11T09:07:14.487Z,93817.13
2023-03-11T09:09:41.197Z,93818.56
2023-03-11T09:12:08.509Z,93815.94
2023-03-11T09:14:35.518Z,93810.66
2023-03-11T09:17:02.259Z,93814.63
2023-03-11T09:19:29.383Z,93813.81
2023-03-11T09:21:55.949Z,93828.19
2023-03-11T09:24:22.530Z,93820.78
2023-03-11T09:26:49.132Z,93828.38
2023-03-11T09:29:15.690Z,93819.59
2023-03-11T09:31:42.500Z,93833.34
2023-03-11T09:34:11.268Z,93831.31
2023-03-11T09:36:40.549Z,93826.31
2023-03-11T09:39:07.576Z,93840.66
2023-03-11T09:41:58.759Z,93836.50
2023-03-11T09:44:44.173Z,93847.53
2023-03-11T09:48:09.569Z,93834.13
2023-03-11T09:50:53.705Z,93852.47
2023-03-11T09:53:35.412Z,93842.63
2023-03-11T09:56:07.073Z,93850.38
2023-03-11T09:58:40.172Z,93843.41
2023-03-11T10:01:28.076Z,93842.34
2023-03-11T10:04:05.348Z,93841.09
2023-03-11T10:06:32.064Z,93853.50
2023-03-11T10:09:08.048Z,93844.47
2023-03-11T10:11:47.234Z,93843.84
2023-03-11T10:14:35.836Z,93859.00
2023-03-11T10:17:40.090Z,93854.81
2023-03-11T10:20:22.687Z,93864.66
2023-03-11T10:23:07.154Z,93863.59
2023-03-11T10:26:08.064Z,93842.16
2023-03-11T10:28:46.977Z,93839.69
2023-03-11T10:31:25.559Z,93853.28
2023-03-11T10:33:52.136Z,93862.09
2023-03-11T10:36:26.544Z,93863.91
2023-03-11T10:38:55.180Z,93862.81
2023-03-11T10:41:47.084Z,93868.53
2023-03-11T10:44:18.748Z,93860.84
2023-03-11T10:46:45.325Z,93861.97
2023-03-11T10:49:15.518Z,93864.19
2023-03-11T10:51:45.306Z,93864.41
2023-03-11T10:54:25.129Z,93853.56
2023-03-11T10:56:56.184Z,93864.69
2023-03-11T10:59:54.245Z,93850.09
2023-03-11T11:02:29.721Z,93858.97
2023-03-11T11:05:27.560Z,93856.91
2023-03-11T11:08:15.850Z,93851.00
2023-03-11T11:11:00.311Z,93865.94
2023-03-11T11:13:31.171Z,93861.28
2023-03-11T11:16:03.432Z,93855.56
2023-03-11T11:18:42.430Z,93855.50
2023-03-11T11:21:14.567Z,93859.91
2023-03-11T11:23:48.285Z,93858.25
2023-03-11T11:26:22.361Z,93853.13
2023-03-11T11:29:14.952Z,93844.69
2023-03-11T11:31:44.854Z,93848.91
2023-03-11T11:34:34.861Z,93848.59
2023-03-11T11:37:04.306Z,93845.19
2023-03-11T11:39:44.421Z,93843.19
2023-03-11T11:42:13.755Z,93852.91
2023-03-11T11:44:43.106Z,93847.97
2023-03-11T11:47:34.040Z,93842.13
2023-03-11T11:50:05.104Z,93849.53
2023-03-11T11:52:36.566Z,93837.97
2023-03-11T11:55:11.556Z,93847.72
2023-03-11T11:57:38.178Z,93845.34
2023-03-11T12:00:21.637Z,93840.94
2023-03-11T12:03:23.729Z,93835.66
2023-03-11T12:06:03.051Z,93828.03
2023-03-11T12:08:42.874Z,93840.69
2023-03-11T12:11:17.298Z,93817.34
2023-03-11T12:14:33.043Z,93821.84
2023-03-11T12:17:04.540Z,93819.31
2023-03-11T12:19:31.255Z,93816.53
2023-03-11T12:22:03.669Z,93815.03
2023-03-11T12:24:33.060Z,93805.81
2023-03-11T12:27:04.997Z,93807.63
2023-03-11T12:29:34.592Z,93805.69
2023-03-11T12:32:02.783Z,93814.78
2023-03-11T12:34:31.401Z,93809.06
2023-03-11T12:37:03.445Z,93809.22
2023-03-11T12:39:34.187Z,93813.63
2023-03-11T12:42:25.110Z,93807.72
2023-03-11T12:44:51.890Z,93793.88
2023-03-11T12:47:24.428Z,93797.94
2023-03-11T12:49:57.256Z,93805.44
2023-03-11T12:52:29.088Z,93812.28
2023-03-11T12:54:58.665Z,93809.41
2023-03-11T12:57:34.220Z,93795.69
2023-03-11T13:00:12.529Z,93802.19
2023-03-11T13:03:00.601Z,93793.69
2023-03-11T13:05:29.845Z,93785.44
2023-03-11T13:08:13.828Z,93782.66
2023-03-11T13:10:42.020Z,93786.78
2023-03-11T13:13:32.529Z,93791.59
2023-03-11T13:16:19.536Z,93792.88
2023-03-11T13:18:47.826Z,93790.53
2023-03-11T13:21:32.354Z,93797.56
2023-03-11T13:24:27.210Z,93802.16
2023-03-11T13:27:00.467Z,93802.66
2023-03-11T13:29:42.798Z,93799.44
2023-03-11T13:32:47.009Z,93800.06
2023-03-11T13:35:28.671Z,93799.22
2023-03-11T13:38:32.372Z,93794.00
2023-03-11T13:41:02.015Z,93802.66
2023-03-11T13:43:29.308Z,93795.84
2023-03-11T13:46:07.310Z,93796.13
2023-03-11T13:48:40.713Z,93803.75
2023-03-11T13:51:13.951Z,93798.81
2023-03-11T13:53:45.188Z,93799.50
2023-03-11T13:56:23.105Z,93797.53
2023-03-11T13:58:49.754Z,93795.03
2023-03-11T14:01:18.001Z,93796.41
2023-03-11T14:03:46.914Z,93792.06
2023-03-11T14:06:19.312Z,93800.75
2023-03-11T14:08:57.933Z,93799.38
2023-03-11T14:11:29.432Z,93799.63
2023-03-11T14:13:56.594Z,93803.41
2023-03-11T14:16:34.003Z,93799.41
2023-03-11T14:19:15.390Z,93803.03
2023-03-11T14:21:43.578Z,93810.50
2023-03-11T14:24:17.604Z,93811.78
2023-03-11T14:26:45.199Z,93801.84
2023-03-11T14:29:16.713Z,93804.03
2023-03-11T14:31:45.327Z,93808.91
2023-03-11T14:34:14.819Z,93811.31
2023-03-11T14:36:48.593Z,93805.66
2023-03-11T14:39:25.880Z,93818.47
2023-03-11T14:41:58.820Z,93825.25
2023-03-11T14:44:27.700Z,93830.00
2023-03-11T14:47:03.297Z,93831.84
2023-03-11T14:49:30.425Z,93831.91
2023-03-11T14:52:03.158Z,93829.38
2023-03-11T14:54:33.912Z,93826.56
2023-03-11T14:57:18.457Z,93829.94
2023-03-11T14:59:50.499Z,93825.78
2023-03-11T15:02:30.529Z,93828.94
2023-03-11T15:04:59.484Z,93824.44
2023-03-11T15:07:27.469Z,93834.44
2023-03-11T15:09:54.356Z,93833.75
2023-03-11T15:12:35.476Z,93829.72
2023-03-11T15:15:02.033Z,93828.03
2023-03-11T15:17:42.742Z,93815.16
2023-03-11T15:20:24.039Z,93824.00
2023-03-11T15:23:00.857Z,93831.84
2023-03-11T15:25:34.142Z,93827.13
2023-03-11T15:28:26.723Z,93824.50
2023-03-11T15:31:25.624Z,93833.06
2023-03-11T15:33:52.249Z,93837.03
2023-03-11T15:36:33.695Z,93824.53
2023-03-11T15:39:32.425Z,93829.25
2023-03-11T15:42:06.573Z,93831.16
2023-03-11T15:44:52.710Z,93842.63
2023-03-11T15:47:23.339Z,93853.28
2023-03-11T15:49:50.361Z,93859.09
2023-03-11T15:52:19.318Z,93857.31
2023-03-11T15:54:55.118Z,93863.72
2023-03-11T15:57:28.228Z,93862.28
2023-03-11T15:59:57.217Z,93858.50
2023-03-11T16:02:28.013Z,93852.50
2023-03-11T16:04:56.054Z,93843.28
2023-03-11T16:07:38.280Z,93849.69
2023-03-11T16:10:06.528Z,93842.09
2023-03-11T16:12:33.209Z,93840.72
2023-03-11T16:14:59.943Z,93845.63
2023-03-11T16:17:28.659Z,93852.06
2023-03-11T16:20:00.754Z,93856.25
2023-03-11T16:22:35.282Z,93857.22
2023-03-11T16:25:03.051Z,93865.03
2023-03-11T16:27:30.057Z,93872.84
2023-03-11T16:29:56.926Z,93877.59
2023-03-11T16:32:23.558Z,93877.59
2023-03-11T16:34:50.158Z,93890.81
2023-03-11T16:37:20.796Z,93894.84
2023-03-11T16:39:48.537Z,93900.78
2023-03-11T16:42:23.764Z,93907.25
2023-03-11T16:44:50.376Z,93901.44
2023-03-11T16:47:17.468Z,93906.84
2023-03-11T16:49:44.134Z,93908.09
2023-03-11T16:52:10.998Z,93912.13
2023-03-11T16:54:37.680Z,93908.78
2023-03-11T16:57:04.304Z,93920.06
2023-03-11T16:59:31.005Z,93927.06
2023-03-11T17:01:57.643Z,93931.91
2023-03-11T17:04:24.254Z,93936.19
2023-03-11T17:06:50.806Z,93939.13
2023-03-11T17:09:17.437Z,93945.31
2023-03-11T17:11:44.028Z,93946.03
2023-03-11T17:14:16.680Z,93946.66
2023-03-11T17:16:45.229Z,93956.22
2023-03-11T17:19:11.984Z,93963.81
2023-03-11T17:21:38.554Z,93963.59
2023-03-11T17:24:05.505Z,93965.47
2023-03-11T17:26:32.152Z,93963.28
2023-03-11T17:28:59.473Z,93965.78
2023-03-11T17:31:26.296Z,93972.59
2023-03-11T17:33:53.082Z,93974.31
2023-03-11T17:36:20.108Z,93986.94
2023-03-11T17:38:47.759Z,93985.72
2023-03-11T17:41:16.893Z,93986.22
2023-03-11T17:43:44.073Z,93983.09
2023-03-11T17:46:16.742Z,93998.69
2023-03-11T17:48:45.174Z,94006.53
2023-03-11T17:51:14.739Z,94003.81
2023-03-11T17:53:45.782Z,94014.44
2023-03-11T17:56:14.458Z,94013.25
2023-03-11T17:58:41.201Z,94017.81
2023-03-11T18:01:14.263Z,94017.81
2023-03-11T18:03:41.117Z,94011.38
2023-03-11T18:06:10.997Z,94011.63
2023-03-11T18:08:37.871Z,94022.53
2023-03-11T18:11:24.970Z,94014.16
2023-03-11T18:13:52.137Z,94018.22
2023-03-11T18:16:24.740Z,94018.13
2023-03-11T18:18:52.226Z,94022.84
2023-03-11T18:21:21.754Z,94028.75
2023-03-11T18:23:48.781Z,94033.59
2023-03-11T18:26:18.297Z,94034.28
2023-03-11T18:28:45.644Z,94041.63
2023-03-11T18:31:20.522Z,94028.72
2023-03-11T18:33:50.673Z,94037.09
2023-03-11T18:36:22.814Z,94042.56
2023-03-11T18:38:50.661Z,94036.41
2023-03-11T18:41:17.509Z,94042.56
2023-03-11T18:43:44.487Z,94059.09
2023-03-11T18:46:16.338Z,94052.47
2023-03-11T18:48:43.000Z,94057.22
2023-03-11T18:51:09.661Z,94054.78
2023-03-11T18:53:36.571Z,94064.75
2023-03-11T18:56:08.691Z,94057.66
2023-03-11T18:58:35.307Z,94062.59
2023-03-11T19:01:10.623Z,94064.50
2023-03-11T19:03:38.274Z,94070.13
2023-03-11T19:06:05.122Z,94066.38
2023-03-11T19:08:31.707Z,94077.25
2023-03-11T19:10:58.274Z,94080.97
2023-03-11T19:13:29.761Z,94083.13
2023-03-11T19:16:04.882Z,94083.13
2023-03-11T19:18:31.795Z,94085.72
2023-03-11T19:21:00.368Z,94093.97
2023-03-11T19:23:27.198Z,94094.41
2023-03-11T19:26:03.117Z,94100.09
2023-03-11T19:28:30.135Z,94102.41
2023-03-11T19:30:58.421Z,94096.47
2023-03-11T19:33:25.592Z,94107.34
2023-03-11T19:35:57.886Z,94112.09
2023-03-11T19:38:25.570Z,94108.50
2023-03-11T19:41:14.449Z,94114.41
2023-03-11T19:43:41.846Z,94118.88
2023-03-11T19:46:10.820Z,94116.25
2023-03-11T19:48:37.477Z,94116.56
2023-03-11T19:51:05.944Z,94113.25
2023-03-11T19:53:33.781Z,94114.47
2023-03-11T19:56:01.577Z,94121.81
2023-03-11T19:58:30.457Z,94128.03
2023-03-11T20:00:58.569Z,94121.81
2023-03-11T20:03:25.564Z,94137.66
2023-03-11T20:05:54.629Z,94136.41
2023-03-11T20:08:21.974Z,94143.00
2023-03-11T20:10:51.025Z,94142.31
2023-03-11T20:13:20.334Z,94144.19
2023-03-11T20:15:47.308Z,94147.50
2023-03-11T20:18:15.601Z,94145.81
2023-03-11T20:20:43.396Z,94144.63
2023-03-11T20:23:11.063Z,94151.28
2023-03-11T20:25:41.324Z,94152.44
2023-03-11T20:28:09.061Z,94160.25
2023-03-11T20:30:37.682Z,94149.28
2023-03-11T20:33:04.715Z,94151.19
2023-03-11T20:35:31.429Z,94140.34
2023-03-11T20:37:59.313Z,94142.94
2023-03-11T20:40:26.131Z,94142.66
2023-03-11T20:42:52.747Z,94143.38
2023-03-11T20:45:22.373Z,94144.31
2023-03-11T20:47:53.729Z,94140.97
2023-03-11T20:50:21.832Z,94138.38
2023-03-11T20:52:48.640Z,94144.47
2023-03-11T20:55:15.310Z,94146.09
2023-03-11T20:57:42.207Z,94145.66
2023-03-11T21:00:12.102Z,94147.53
2023-03-11T21:02:40.591Z,94144.66
2023-03-11T21:05:09.655Z,94140.34
2023-03-11T21:07:36.453Z,94146.81
2023-03-11T21:10:06.899Z,94142.78
2023-03-11T21:12:33.830Z,94142.97
2023-03-11T21:15:00.626Z,94138.19
2023-03-11T21:17:27.429Z,94144.56
2023-03-11T21:19:54.269Z,94140.75
2023-03-11T21:22:21.058Z,94140.75
2023-03-11T21:24:52.678Z,94151.56
2023-03-11T21:27:25.838Z,94151.22
2023-03-11T21:29:56.549Z,94147.91
2023-03-11T21:32:24.446Z,94143.88
2023-03-11T21:34:51.328Z,94156.84
2023-03-11T21:37:18.046Z,94160.66
2023-03-11T21:39:44.858Z,94163.88
2023-03-11T21:42:11.606Z,94157.41
2023-03-11T21:44:38.384Z,94159.44
2023-03-11T21:47:05.327Z,94176.13
2023-03-11T21:49:32.048Z,94176.88
2023-03-11T21:52:01.011Z,94168.16
2023-03-11T21:54:29.095Z,94168.88
2023-03-11T21:56:55.916Z,94173.38
2023-03-11T21:59:25.142Z,94174.53
2023-03-11T22:01:53.078Z,94168.63
2023-03-11T22:04:19.964Z,94172.81
2023-03-11T22:06:46.663Z,94175.84
2023-03-11T22:09:13.418Z,94178.00
2023-03-11T22:11:40.227Z,94160.28
2023-03-11T22:14:06.854Z,94164.31
2023-03-11T22:16:33.513Z,94160.28
2023-03-11T22:19:00.240Z,94164.75
2023-03-11T22:21:26.861Z,94165.94
2023-03-11T22:23:53.376Z,94164.03
2023-03-11T22:26:20.002Z,94158.56
2023-03-11T22:28:46.594Z,94164.94
2023-03-11T22:31:15.240Z,94174.81
2023-03-11T22:33:41.899Z,94173.06
2023-03-11T22:36:09.622Z,94182.59
2023-03-11T22:38:37.091Z,94177.81
2023-03-11T22:41:07.725Z,94175.53
2023-03-11T22:43:35.542Z,94171.97
2023-03-11T22:46:03.121Z,94182.75
2023-03-11T22:48:29.921Z,94187.19
2023-03-11T22:50:57.276Z,94183.91
2023-03-11T22:53:25.026Z,94178.97
2023-03-11T22:55:52.445Z,94184.41
2023-03-11T22:58:19.595Z,94179.22
2023-03-11T23:00:46.622Z,94186.13
2023-03-11T23:03:13.694Z,94193.63
2023-03-11T23:05:43.335Z,94185.84
2023-03-11T23:08:12.082Z,94188.19
2023-03-11T23:10:46.021Z,94187.72
2023-03-11T23:13:12.899Z,94192.66
2023-03-11T23:15:44.290Z,94189.81
2023-03-11T23:18:12.000Z,94187.66
2023-03-11T23:20:40.885Z,94183.19
2023-03-11T23:23:08.683Z,94185.94
2023-03-11T23:25:35.868Z,94184.50
2023-03-11T23:28:04.342Z,94180.31
2023-03-11T23:30:31.020Z,94180.31
2023-03-11T23:32:58.182Z,94193.44
2023-03-11T23:35:24.912Z,94189.41
2023-03-11T23:37:51.736Z,94190.56
2023-03-11T23:40:18.586Z,94186.81
2023-03-11T23:42:45.303Z,94185.84
2023-03-11T23:45:11.893Z,94192.16
2023-03-11T23:47:38.473Z,94192.16
2023-03-11T23:50:05.508Z,94192.63
2023-03-11T23:52:32.637Z,94197.28
2023-03-11T23:54:59.226Z,94195.56
2023-03-11T23:57:25.855Z,94196.28
2023-03-11T23:59:52.450Z,94198.16
